Time;durP1;ratioP1;P1;durP2;ratioP2;P2;SDS_P1;SDS_P2;PMS_P1;PMS_P2;Temp;Humidity;BMP_temperature;BMP_pressure;BME280_temperature;BME280_humidity;BME280_pressure;Samples;Min_cycle;Max_cycle;Signal;HPM_P1;HPM_P2
2021/01/27 00:01:12;;;;;;;14.07;8.98;;;;;;;3.63;68.27;100341.09;4992673;28;20054;-63
2021/01/27 00:03:39;;;;;;;14.68;8.23;;;;;;;3.62;69.11;100346.84;4993486;28;20050;-63
2021/01/27 00:06:06;;;;;;;13.30;8.02;;;;;;;3.63;68.71;100341.09;4993330;28;20062;-63
2021/01/27 00:08:33;;;;;;;13.70;8.38;;;;;;;3.65;68.41;100341.66;5001278;28;20115;-63
2021/01/27 00:11:00;;;;;;;13.93;8.45;;;;;;;3.60;68.25;100349.06;5012266;28;20054;-63
2021/01/27 00:13:27;;;;;;;12.07;8.50;;;;;;;3.60;68.62;100344.38;5011908;28;20057;-63
2021/01/27 00:15:54;;;;;;;12.52;7.57;;;;;;;3.62;68.19;100335.84;5011970;28;20054;-63
2021/01/27 00:18:21;;;;;;;11.65;7.53;;;;;;;3.63;67.80;100335.56;5012679;28;20081;-62
2021/01/27 00:20:48;;;;;;;12.95;8.15;;;;;;;3.62;67.29;100336.66;5012360;28;20126;-62
2021/01/27 00:23:15;;;;;;;12.05;7.90;;;;;;;3.66;67.88;100335.03;5004497;28;20058;-61
2021/01/27 00:25:42;;;;;;;11.48;8.60;;;;;;;3.63;67.54;100332.81;4978396;28;20050;-63
2021/01/27 00:28:09;;;;;;;13.10;7.75;;;;;;;3.68;68.36;100337.50;4996353;28;20077;-63
2021/01/27 00:30:38;;;;;;;11.45;7.68;;;;;;;3.69;68.03;100319.06;4996575;28;20143;-63
2021/01/27 00:33:06;;;;;;;13.65;7.32;;;;;;;3.66;67.70;100321.25;4996729;28;20054;-63
2021/01/27 00:35:36;;;;;;;11.00;7.35;;;;;;;3.66;67.12;100307.47;4996334;28;20062;-62
2021/01/27 00:38:09;;;;;;;9.90;6.93;;;;;;;3.59;68.07;100301.41;4996167;28;20058;-62
2021/01/27 00:40:39;;;;;;;9.57;6.80;;;;;;;3.63;67.42;100297.03;4995846;28;20058;-62
2021/01/27 00:43:05;;;;;;;11.73;7.57;;;;;;;3.62;67.55;100292.59;4996231;28;20062;-63
2021/01/27 00:45:32;;;;;;;9.70;7.05;;;;;;;3.59;67.23;100301.41;4995801;28;20427;-62
2021/01/27 00:47:59;;;;;;;10.55;7.05;;;;;;;3.63;66.72;100287.91;5005894;28;20053;-61
2021/01/27 00:50:27;;;;;;;9.57;6.38;;;;;;;3.63;66.86;100288.75;5015119;28;20061;-63
2021/01/27 00:52:54;;;;;;;8.57;6.47;;;;;;;3.58;67.19;100268.63;5015136;28;20061;-63
2021/01/27 00:55:23;;;;;;;8.02;5.82;;;;;;;3.55;65.92;100275.53;5012626;28;20072;-62
2021/01/27 00:57:51;;;;;;;6.57;4.47;;;;;;;3.54;64.88;100276.59;4995708;28;20061;-62
2021/01/27 01:00:21;;;;;;;6.95;4.03;;;;;;;3.53;65.13;100276.88;4995373;28;20081;-62
2021/01/27 01:02:49;;;;;;;7.70;5.40;;;;;;;3.54;65.40;100279.34;4995433;28;20062;-62
2021/01/27 01:05:18;;;;;;;7.28;5.13;;;;;;;3.58;65.71;100285.16;4987737;28;20054;-61
2021/01/27 01:07:46;;;;;;;7.47;4.78;;;;;;;3.51;65.17;100282.66;4996009;28;20050;-62
2021/01/27 01:10:20;;;;;;;8.27;5.40;;;;;;;3.49;65.97;100284.06;4996068;28;20061;-62
2021/01/27 01:12:46;;;;;;;6.47;4.88;;;;;;;3.53;64.83;100279.63;4995426;28;20415;-62
2021/01/27 01:15:14;;;;;;;9.45;5.40;;;;;;;3.50;65.84;100280.19;4995813;28;20082;-61
2021/01/27 01:17:41;;;;;;;9.10;5.25;;;;;;;3.54;65.72;100284.03;4994664;28;20059;-62
2021/01/27 01:20:14;;;;;;;6.97;4.28;;;;;;;3.57;65.10;100276.06;4995120;28;20054;-62
2021/01/27 01:22:43;;;;;;;9.30;5.10;;;;;;;3.55;64.97;100271.91;4995037;28;20054;-62
2021/01/27 01:25:11;;;;;;;5.90;4.70;;;;;;;3.57;63.78;100280.72;4996479;28;20050;-62
2021/01/27 01:27:40;;;;;;;6.28;4.38;;;;;;;3.48;65.06;100280.44;4995021;28;20456;-62
2021/01/27 01:30:10;;;;;;;7.47;4.33;;;;;;;3.44;65.33;100271.91;4994904;28;20050;-62
2021/01/27 01:32:37;;;;;;;;;;;;;;;3.45;64.63;100281.00;4996293;28;20488;-62
2021/01/27 01:35:04;;;;;;;7.35;4.22;;;;;;;3.41;64.37;100271.63;4995610;28;20363;-62
2021/01/27 01:37:31;;;;;;;6.68;4.53;;;;;;;3.36;64.42;100266.94;4994614;28;20080;-62
2021/01/27 01:39:58;;;;;;;8.10;4.32;;;;;;;3.37;64.46;100268.59;5010462;28;20060;-62
2021/01/27 01:42:24;;;;;;;5.93;4.70;;;;;;;3.42;64.92;100265.00;5014280;28;20403;-62
2021/01/27 01:44:52;;;;;;;7.95;4.60;;;;;;;3.38;63.96;100250.13;5009296;28;20441;-62
2021/01/27 01:47:21;;;;;;;6.10;4.50;;;;;;;3.43;64.88;100241.91;4995103;28;20058;-62
2021/01/27 01:49:49;;;;;;;5.90;4.38;;;;;;;3.48;63.70;100252.09;4993360;28;20419;-62
2021/01/27 01:52:17;;;;;;;9.02;4.85;;;;;;;3.53;63.80;100255.69;4975006;28;20408;-62
2021/01/27 01:54:49;;;;;;;8.40;4.57;;;;;;;3.47;64.30;100262.28;5006242;28;20057;-60
2021/01/27 01:57:20;;;;;;;8.02;4.47;;;;;;;3.54;63.50;100256.50;5014542;28;20050;-61
2021/01/27 01:59:55;;;;;;;5.70;4.50;;;;;;;3.53;62.91;100266.72;5014101;28;20046;-61
2021/01/27 02:02:23;;;;;;;7.40;4.07;;;;;;;3.50;62.10;100258.97;5014451;28;20054;-60
2021/01/27 02:04:55;;;;;;;6.07;4.30;;;;;;;3.42;62.99;100254.00;5013969;28;20057;-62
2021/01/27 02:07:23;;;;;;;8.40;4.70;;;;;;;3.44;61.61;100238.03;5014693;28;20054;-61
2021/01/27 02:09:50;;;;;;;5.97;3.83;;;;;;;3.45;61.35;100240.53;5012003;28;20050;-61
2021/01/27 02:12:36;;;;;;;6.18;4.20;;;;;;;3.40;62.68;100240.53;5014394;28;20046;-62
2021/01/27 02:15:23;;;;;;;6.95;4.20;;;;;;;3.38;62.53;100242.72;5014088;28;20054;-63
2021/01/27 02:18:00;;;;;;;10.02;5.00;;;;;;;3.37;62.30;100243.00;5013653;28;20053;-60
2021/01/27 02:21:03;;;;;;;7.13;4.57;;;;;;;3.35;62.23;100237.75;5013552;28;20054;-61
2021/01/27 02:24:09;;;;;;;7.55;5.22;;;;;;;3.40;61.45;100234.16;5004198;28;20076;-62
2021/01/27 02:26:52;;;;;;;6.43;4.28;;;;;;;3.41;60.81;100235.84;4941832;28;20047;-62
2021/01/27 02:29:36;;;;;;;5.68;3.90;;;;;;;3.40;61.54;100226.75;4974669;28;20055;-62
2021/01/27 02:32:19;;;;;;;5.78;4.10;;;;;;;3.44;61.13;100227.03;4974900;28;20058;-62
2021/01/27 02:34:57;;;;;;;6.40;4.75;;;;;;;3.47;61.96;100226.50;4974747;28;20054;-61
2021/01/27 02:37:29;;;;;;;6.25;4.05;;;;;;;3.52;61.11;100220.97;4974414;28;20508;-59
2021/01/27 02:40:01;;;;;;;5.95;4.30;;;;;;;3.50;60.86;100220.44;4990374;28;20514;-60
2021/01/27 02:42:34;;;;;;;6.50;4.03;;;;;;;3.49;60.69;100215.22;4993750;28;20054;-61
2021/01/27 02:45:07;;;;;;;8.55;4.05;;;;;;;3.39;60.08;100216.00;4993659;28;20053;-61
2021/01/27 02:47:43;;;;;;;6.43;4.30;;;;;;;3.40;60.84;100212.16;4993733;28;20046;-62
2021/01/27 02:50:15;;;;;;;6.78;4.55;;;;;;;3.39;60.63;100205.00;4993510;28;20054;-62
2021/01/27 02:52:47;;;;;;;5.80;3.85;;;;;;;3.37;60.90;100199.75;4993796;28;20065;-62
2021/01/27 02:55:18;;;;;;;6.43;4.20;;;;;;;3.35;61.17;100203.91;4994767;28;20065;-62
2021/01/27 02:57:52;;;;;;;6.53;4.20;;;;;;;3.28;60.74;100198.66;4993232;28;20065;-62
2021/01/27 03:00:24;;;;;;;6.05;4.22;;;;;;;3.31;61.33;100191.78;4997610;28;20062;-62
2021/01/27 03:02:56;;;;;;;7.00;4.20;;;;;;;3.26;61.50;100187.09;5013822;28;20061;-62
2021/01/27 03:05:29;;;;;;;7.60;4.93;;;;;;;3.24;61.40;100187.34;5013682;28;20050;-62
2021/01/27 03:08:00;;;;;;;7.53;5.00;;;;;;;3.28;61.47;100193.16;5013725;28;20061;-62
2021/01/27 03:10:34;;;;;;;6.40;4.18;;;;;;;3.30;62.48;100184.59;5012698;28;20054;-62
2021/01/27 03:13:02;;;;;;;6.65;4.43;;;;;;;3.23;62.24;100191.22;5013358;28;20054;-61
2021/01/27 03:15:29;;;;;;;8.10;4.93;;;;;;;3.18;61.38;100163.69;5004996;28;20407;-61
2021/01/27 03:18:00;;;;;;;8.18;5.22;;;;;;;3.16;62.03;100176.88;4993087;28;20417;-61
2021/01/27 03:20:33;;;;;;;7.38;4.35;;;;;;;3.11;61.72;100171.38;4993482;28;20050;-61
2021/01/27 03:23:06;;;;;;;6.05;4.30;;;;;;;3.04;61.00;100190.91;4993168;28;20061;-61
2021/01/27 03:25:44;;;;;;;7.03;4.70;;;;;;;3.00;62.11;100164.19;4992163;28;20411;-61
2021/01/27 03:28:15;;;;;;;6.53;4.45;;;;;;;3.05;61.56;100175.22;4992994;28;20053;-61
2021/01/27 03:30:42;;;;;;;7.20;4.35;;;;;;;3.01;62.12;100168.59;4993540;28;20500;-61
2021/01/27 03:33:14;;;;;;;7.03;4.65;;;;;;;2.99;63.10;100177.13;4993203;28;20065;-62
2021/01/27 03:35:47;;;;;;;11.30;4.78;;;;;;;3.02;62.45;100178.50;4992464;28;20061;-62
2021/01/27 03:38:22;;;;;;;8.43;4.28;;;;;;;3.00;63.64;100170.53;4992567;28;20051;-62
2021/01/27 03:40:53;;;;;;;6.72;4.88;;;;;;;3.00;63.22;100164.19;4993367;28;20058;-62
2021/01/27 03:43:26;;;;;;;6.70;4.45;;;;;;;2.95;63.59;100161.44;4992747;28;20058;-62
2021/01/27 03:46:02;;;;;;;6.30;3.97;;;;;;;3.06;62.96;100165.84;4992883;28;20062;-62
2021/01/27 03:48:35;;;;;;;6.10;4.22;;;;;;;2.98;63.45;100158.13;4992836;28;20404;-62
2021/01/27 03:51:05;;;;;;;6.35;4.80;;;;;;;3.02;62.88;100153.72;4992854;28;20245;-61
2021/01/27 03:53:33;;;;;;;7.32;5.38;;;;;;;2.98;63.26;100136.97;4997598;28;20054;-62
2021/01/27 03:56:09;;;;;;;7.40;4.82;;;;;;;3.06;62.67;100138.34;5012401;28;20046;-62
2021/01/27 03:58:39;;;;;;;5.70;4.50;;;;;;;3.10;64.12;100136.69;5012346;28;20054;-60
2021/01/27 04:01:08;;;;;;;6.45;4.72;;;;;;;3.05;63.93;100131.19;5015326;28;20061;-61
2021/01/27 04:03:35;;;;;;;7.30;4.70;;;;;;;3.10;64.13;100122.13;5016334;28;20065;-61
2021/01/27 04:06:05;;;;;;;8.13;5.28;;;;;;;3.09;63.35;100120.44;5016127;28;20503;-61
2021/01/27 04:08:32;;;;;;;6.90;4.95;;;;;;;3.10;64.47;100116.63;5007861;28;20046;-61
2021/01/27 04:10:59;;;;;;;8.95;5.30;;;;;;;3.07;63.62;100123.50;4996259;28;20456;-61
2021/01/27 04:13:26;;;;;;;6.15;4.70;;;;;;;3.10;64.19;100124.88;4996619;28;20073;-60
2021/01/27 04:15:53;;;;;;;7.70;4.65;;;;;;;3.15;63.80;100124.84;4996827;28;20058;-60
2021/01/27 04:18:20;;;;;;;6.85;4.22;;;;;;;3.14;63.15;100126.78;4996410;28;20069;-60
2021/01/27 04:20:47;;;;;;;7.20;4.68;;;;;;;3.09;64.28;100124.06;4996168;28;20061;-61
2021/01/27 04:23:14;;;;;;;5.60;3.63;;;;;;;3.01;64.41;100117.16;5003020;28;20057;-61
2021/01/27 04:25:41;;;;;;;9.05;5.53;;;;;;;3.05;63.91;100112.75;4976701;28;20054;-61
2021/01/27 04:28:08;;;;;;;8.95;4.28;;;;;;;3.02;64.15;100109.72;4976879;28;20070;-61
2021/01/27 04:30:36;;;;;;;6.03;4.40;;;;;;;3.03;63.90;100103.13;4976600;28;20062;-61
2021/01/27 04:33:07;;;;;;;7.97;4.35;;;;;;;3.07;63.64;100103.38;4976728;28;20055;-61
2021/01/27 04:35:34;;;;;;;7.32;4.55;;;;;;;3.07;64.54;100104.22;4976971;28;20055;-61
2021/01/27 04:38:02;;;;;;;7.38;4.18;;;;;;;3.12;65.13;100095.97;4977346;28;20058;-61
2021/01/27 04:40:33;;;;;;;6.97;4.18;;;;;;;3.12;63.66;100084.97;4976429;28;20051;-61
2021/01/27 04:43:01;;;;;;;6.47;4.30;;;;;;;3.09;64.52;100074.53;4976431;28;20054;-61
2021/01/27 04:45:28;;;;;;;5.80;3.97;;;;;;;3.09;65.09;100063.50;4986236;28;20054;-61
2021/01/27 04:48:00;;;;;;;7.88;4.25;;;;;;;3.14;64.93;100071.75;4995970;28;20053;-61
2021/01/27 04:50:32;;;;;;;6.55;4.25;;;;;;;3.17;65.21;100062.13;4995529;28;20050;-61
2021/01/27 04:53:09;;;;;;;5.85;4.07;;;;;;;3.17;64.18;100068.47;4996383;28;20409;-61
2021/01/27 04:56:01;;;;;;;6.72;4.53;;;;;;;3.17;64.89;100062.97;5015289;28;20061;-61
2021/01/27 04:58:37;;;;;;;7.47;4.15;;;;;;;3.16;64.57;100044.78;5015399;28;20050;-61
2021/01/27 05:01:23;;;;;;;5.85;3.97;;;;;;;3.14;65.05;100024.97;5015186;28;20057;-59
2021/01/27 05:04:00;;;;;;;7.60;3.88;;;;;;;3.14;64.67;100021.41;5002973;28;20057;-62
2021/01/27 05:06:31;;;;;;;5.95;3.70;;;;;;;3.14;65.51;100015.91;5001204;28;20054;-61
2021/01/27 05:09:06;;;;;;;6.57;4.00;;;;;;;3.15;65.69;100012.03;5004458;28;20415;-60
2021/01/27 05:11:34;;;;;;;5.97;3.88;;;;;;;3.23;65.67;100003.22;5014000;28;20058;-60
2021/01/27 05:14:03;;;;;;;6.75;4.40;;;;;;;3.23;65.15;100000.47;5015142;28;20057;-61
2021/01/27 05:16:34;;;;;;;7.38;4.03;;;;;;;3.17;66.33;99991.41;5015093;28;20061;-62
2021/01/27 05:19:04;;;;;;;7.03;3.97;;;;;;;3.28;65.92;99983.16;5015105;28;20050;-61
2021/01/27 05:21:33;;;;;;;5.95;3.55;;;;;;;3.24;66.46;99978.19;5014870;28;20138;-62
2021/01/27 05:24:01;;;;;;;5.15;3.65;;;;;;;3.27;66.33;99971.28;5004078;28;20050;-62
2021/01/27 05:26:35;;;;;;;5.60;3.40;;;;;;;3.19;65.85;99980.97;5014930;28;20413;-62
2021/01/27 05:29:05;;;;;;;6.28;3.70;;;;;;;3.29;65.39;99974.59;5010383;28;20046;-61
2021/01/27 05:31:57;;;;;;;4.70;3.45;;;;;;;3.26;65.36;99964.16;4994596;28;20510;-62
2021/01/27 05:34:28;;;;;;;4.93;3.13;;;;;;;3.23;65.08;99959.19;5011817;28;20057;-61
2021/01/27 05:36:55;;;;;;;4.95;3.33;;;;;;;3.27;67.02;99942.94;5009969;28;20050;-61
2021/01/27 05:39:28;;;;;;;5.80;3.45;;;;;;;3.30;65.21;99945.97;4994783;28;20054;-61
2021/01/27 05:42:21;;;;;;;5.78;3.65;;;;;;;3.31;66.58;99931.09;4994253;28;20057;-61
2021/01/27 05:44:51;;;;;;;7.28;3.72;;;;;;;3.25;66.16;99935.81;4994490;28;20510;-61
2021/01/27 05:47:25;;;;;;;5.97;2.88;;;;;;;3.23;65.13;99921.50;4997250;28;20054;-61
2021/01/27 05:49:53;;;;;;;5.32;2.45;;;;;;;3.18;65.39;99927.00;4997659;28;20415;-62
2021/01/27 05:52:23;;;;;;;6.82;3.55;;;;;;;3.11;65.80;99933.88;4994415;28;20065;-60
2021/01/27 05:54:50;;;;;;;4.60;3.63;;;;;;;3.17;66.29;99922.63;5001935;28;20050;-60
2021/01/27 05:57:24;;;;;;;4.18;2.97;;;;;;;3.18;65.61;99916.00;4997485;28;20050;-61
2021/01/27 06:00:03;;;;;;;5.40;3.40;;;;;;;3.17;66.42;99908.84;4997535;28;20065;-61
2021/01/27 06:02:36;;;;;;;4.87;3.40;;;;;;;3.23;66.38;99910.50;4998365;28;20050;-61
2021/01/27 06:05:07;;;;;;;5.68;3.33;;;;;;;3.27;65.29;99904.41;4994745;28;20389;-61
2021/01/27 06:07:34;;;;;;;5.68;3.20;;;;;;;3.27;66.05;99904.41;4997170;28;20134;-61
2021/01/27 06:10:30;;;;;;;5.60;3.28;;;;;;;3.25;65.74;99897.28;4996520;28;20380;-62
2021/01/27 06:13:16;;;;;;;4.18;2.90;;;;;;;3.22;65.37;99889.56;5013051;28;20061;-60
2021/01/27 06:15:42;;;;;;;4.72;3.22;;;;;;;3.16;67.09;99893.44;4975005;28;20385;-61
2021/01/27 06:18:26;;;;;;;5.20;2.97;;;;;;;3.18;67.12;99896.72;5009848;28;20386;-61
2021/01/27 06:21:13;;;;;;;5.13;3.30;;;;;;;3.23;66.97;99891.22;5009657;28;20057;-61
2021/01/27 06:24:15;;;;;;;6.97;3.00;;;;;;;3.28;65.72;99892.31;4995879;28;20069;-61
2021/01/27 06:27:07;;;;;;;3.13;2.30;;;;;;;3.33;66.03;99906.06;4972798;28;20054;-61
2021/01/27 06:30:09;;;;;;;2.90;2.10;;;;;;;3.24;65.80;99883.78;5001703;28;20053;-61
2021/01/27 06:33:13;;;;;;;3.47;2.50;;;;;;;3.23;66.19;99874.72;4960647;28;20050;-61
2021/01/27 06:35:50;;;;;;;3.75;2.50;;;;;;;3.22;66.33;99878.56;4981822;28;20050;-61
2021/01/27 06:38:42;;;;;;;4.20;2.80;;;;;;;3.31;66.69;99867.78;4993216;28;20054;-60
2021/01/27 06:41:28;;;;;;;3.58;2.72;;;;;;;3.35;65.57;99862.56;4959508;28;20058;-60
2021/01/27 06:44:15;;;;;;;5.00;2.55;;;;;;;3.27;65.86;99860.38;4974741;28;20058;-60
2021/01/27 06:47:13;;;;;;;4.25;2.50;;;;;;;3.29;66.09;99859.00;4979737;28;20444;-61
2021/01/27 06:50:22;;;;;;;4.35;2.80;;;;;;;3.37;65.86;99858.41;4994813;28;20058;-61
2021/01/27 06:53:18;;;;;;;3.80;2.63;;;;;;;3.42;67.03;99858.41;4975384;28;20050;-61
2021/01/27 06:56:00;;;;;;;4.40;2.90;;;;;;;3.38;65.76;99864.72;4981794;28;20054;-61
2021/01/27 06:59:00;;;;;;;4.70;2.90;;;;;;;3.43;65.54;99865.53;4993384;28;20066;-62
2021/01/27 07:01:58;;;;;;;5.45;3.33;;;;;;;3.37;65.32;99854.84;4990973;28;20398;-62
2021/01/27 07:05:01;;;;;;;4.43;2.97;;;;;;;3.35;66.72;99868.88;5013570;28;20058;-62
2021/01/27 07:07:42;;;;;;;5.65;3.10;;;;;;;3.36;66.40;99854.03;5007418;28;20065;-62
2021/01/27 07:10:42;;;;;;;4.25;2.95;;;;;;;3.43;66.88;99842.69;4993168;28;20059;-62
2021/01/27 07:13:27;;;;;;;5.28;3.38;;;;;;;3.42;66.24;99830.03;4987135;28;20061;-62
2021/01/27 07:16:00;;;;;;;4.03;2.70;;;;;;;3.33;65.49;99837.25;4996731;28;20050;-62
2021/01/27 07:19:17;;;;;;;4.38;3.28;;;;;;;3.34;66.55;99828.72;4994167;28;20760;-61
2021/01/27 07:21:53;;;;;;;4.35;3.13;;;;;;;3.39;65.72;99816.84;4932190;29;20051;-62
2021/01/27 07:24:28;;;;;;;4.90;3.75;;;;;;;3.39;66.68;99825.91;4920371;29;20067;-61
2021/01/27 07:27:02;;;;;;;4.22;2.78;;;;;;;3.32;66.38;99813.56;4981002;28;20057;-63
2021/01/27 07:29:33;;;;;;;5.53;3.60;;;;;;;3.35;66.92;99811.06;5013375;28;20061;-62
2021/01/27 07:32:05;;;;;;;4.38;2.78;;;;;;;3.34;66.76;99816.84;5000888;28;20061;-62
2021/01/27 07:34:37;;;;;;;4.75;3.42;;;;;;;3.42;66.94;99822.63;4993361;28;20496;-62
2021/01/27 07:37:17;;;;;;;4.28;3.17;;;;;;;3.37;66.56;99810.78;4992870;28;20413;-62
2021/01/27 07:40:06;;;;;;;4.35;3.13;;;;;;;3.44;65.68;99801.13;4996074;28;20053;-62
2021/01/27 07:42:39;;;;;;;4.07;2.85;;;;;;;3.43;66.37;99816.00;5006672;28;20054;-62
2021/01/27 07:45:10;;;;;;;5.72;3.50;;;;;;;3.34;67.13;99816.84;5002162;28;20061;-62
2021/01/27 07:47:47;;;;;;;4.10;3.20;;;;;;;3.41;66.41;99820.94;5005794;28;20057;-64
2021/01/27 07:50:19;;;;;;;5.70;3.40;;;;;;;3.39;66.21;99819.59;4991388;28;20137;-64
2021/01/27 07:53:12;;;;;;;2.92;2.13;;;;;;;3.37;65.93;99816.31;4992291;28;20061;-64
2021/01/27 07:55:47;;;;;;;3.25;2.40;;;;;;;3.51;66.46;99816.50;4986407;28;20071;-64
2021/01/27 07:58:19;;;;;;;4.25;3.05;;;;;;;3.43;66.18;99838.00;4996722;28;20369;-65
2021/01/27 08:00:54;;;;;;;4.32;3.15;;;;;;;3.38;67.58;99807.78;4988334;28;20050;-64
2021/01/27 08:03:42;;;;;;;5.88;3.45;;;;;;;3.45;67.79;99807.47;4989965;28;20054;-63
2021/01/27 08:06:14;;;;;;;5.80;3.40;;;;;;;3.28;70.62;99809.75;4990349;28;20050;-64
2021/01/27 08:08:49;;;;;;;3.67;2.55;;;;;;;3.15;70.87;99809.25;4991529;28;20057;-64
2021/01/27 08:11:21;;;;;;;5.60;3.88;;;;;;;3.08;72.25;99822.47;4991907;28;20419;-63
2021/01/27 08:13:49;;;;;;;5.10;3.83;;;;;;;3.04;73.72;99827.72;4988897;28;20065;-64
2021/01/27 08:16:35;;;;;;;5.45;3.65;;;;;;;2.90;73.36;99823.06;4991270;28;20062;-64
2021/01/27 08:19:19;;;;;;;6.00;3.33;;;;;;;2.84;73.33;99827.78;4991518;28;20412;-64
2021/01/27 08:21:52;;;;;;;6.75;3.95;;;;;;;2.83;75.31;99817.88;4992394;28;20050;-64
2021/01/27 08:24:57;;;;;;;11.30;4.93;;;;;;;2.83;75.05;99823.38;4996590;28;20053;-64
2021/01/27 08:27:35;;;;;;;6.65;4.43;;;;;;;2.88;74.86;99814.28;4972055;28;20067;-64
2021/01/27 08:30:21;;;;;;;5.95;3.80;;;;;;;2.91;73.52;99836.56;4981694;28;20073;-65
2021/01/27 08:32:48;;;;;;;5.05;3.33;;;;;;;2.83;74.30;99826.97;4986020;28;20411;-64
2021/01/27 08:36:08;;;;;;;4.82;3.17;;;;;;;2.91;73.96;99808.22;4995935;28;20066;-64
2021/01/27 08:38:41;;;;;;;5.10;3.22;;;;;;;2.93;74.22;99831.59;4954657;28;20066;-65
2021/01/27 08:41:31;;;;;;;4.20;3.10;;;;;;;2.95;74.39;99817.56;4990708;28;20487;-64
2021/01/27 08:44:00;;;;;;;5.25;3.40;;;;;;;3.01;73.78;99821.94;4993532;28;20169;-64
2021/01/27 08:46:41;;;;;;;4.22;3.28;;;;;;;3.10;73.27;99822.19;4998705;28;20049;-64
2021/01/27 08:49:10;;;;;;;4.72;2.90;;;;;;;3.12;74.03;99823.56;4998815;28;20527;-64
2021/01/27 08:51:54;;;;;;;4.05;2.80;;;;;;;3.15;72.63;99820.25;4994522;28;21484;-65
2021/01/27 08:54:45;;;;;;;3.83;2.63;;;;;;;3.15;73.04;99806.50;4994519;28;20050;-64
2021/01/27 08:57:20;;;;;;;3.50;2.55;;;;;;;3.05;73.43;99804.59;4995651;28;20054;-64
2021/01/27 09:00:09;;;;;;;3.22;2.28;;;;;;;3.09;73.21;99804.88;4995492;28;20042;-63
2021/01/27 09:02:51;;;;;;;4.25;2.40;;;;;;;3.11;73.83;99797.16;4994268;28;20057;-64
2021/01/27 09:05:45;;;;;;;3.63;2.40;;;;;;;3.17;72.79;99790.53;4996319;28;20061;-64
2021/01/27 09:08:29;;;;;;;3.90;2.70;;;;;;;3.41;72.78;99785.16;4995849;28;20055;-64
2021/01/27 09:10:58;;;;;;;2.33;1.60;;;;;;;3.48;71.55;99784.84;4998484;28;20057;-64
2021/01/27 09:13:33;;;;;;;2.97;2.30;;;;;;;3.39;72.16;99781.06;4998859;28;20050;-63
2021/01/27 09:16:03;;;;;;;3.33;2.25;;;;;;;3.52;71.48;99776.84;4999002;28;20419;-64
2021/01/27 09:18:31;;;;;;;3.97;2.10;;;;;;;3.63;71.28;99759.16;4995841;28;20050;-64
2021/01/27 09:21:05;;;;;;;3.08;2.10;;;;;;;3.64;70.83;99778.16;4991518;28;20065;-63
2021/01/27 09:23:32;;;;;;;2.42;1.73;;;;;;;3.72;70.14;99756.63;4997666;28;20475;-64
2021/01/27 09:26:03;;;;;;;2.30;1.60;;;;;;;3.70;70.00;99756.09;4994167;28;20051;-64
2021/01/27 09:28:33;;;;;;;2.72;2.00;;;;;;;3.64;70.00;99758.06;4994081;28;20070;-63
2021/01/27 09:31:12;;;;;;;2.13;1.63;;;;;;;3.76;68.69;99757.69;4997651;28;20050;-64
2021/01/27 09:33:39;;;;;;;1.90;1.38;;;;;;;3.74;68.96;99782.78;4997608;28;20061;-63
2021/01/27 09:36:11;;;;;;;2.60;1.70;;;;;;;3.77;69.31;99765.66;4995689;28;20427;-63
2021/01/27 09:38:38;;;;;;;2.75;1.60;;;;;;;3.63;69.79;99771.00;4995478;28;20051;-63
2021/01/27 09:41:09;;;;;;;2.72;1.50;;;;;;;3.68;68.96;99772.09;4994148;28;20057;-63
2021/01/27 09:43:43;;;;;;;3.90;1.90;;;;;;;3.62;69.54;99777.59;4994103;28;20479;-63
2021/01/27 09:46:21;;;;;;;2.65;1.60;;;;;;;3.68;70.41;99791.38;4993153;28;20058;-63
2021/01/27 09:48:49;;;;;;;2.25;1.80;;;;;;;3.73;69.97;99794.06;4993781;28;20051;-63
2021/01/27 09:51:16;;;;;;;3.45;2.10;;;;;;;3.69;69.87;99796.56;4998513;28;20061;-63
2021/01/27 09:53:44;;;;;;;2.60;1.60;;;;;;;3.61;69.55;99797.16;4993950;28;20058;-63
2021/01/27 09:56:16;;;;;;;2.80;1.55;;;;;;;3.63;69.27;99793.03;4993466;28;20054;-63
2021/01/27 09:58:47;;;;;;;2.53;1.40;;;;;;;3.64;70.40;99786.41;4994243;28;20054;-63
2021/01/27 10:01:18;;;;;;;1.98;1.15;;;;;;;3.69;69.17;99796.56;4992488;28;20135;-63
2021/01/27 10:03:46;;;;;;;2.80;1.73;;;;;;;3.67;69.99;99798.78;4993755;28;20538;-63
2021/01/27 10:06:36;;;;;;;2.55;1.40;;;;;;;3.66;69.65;99797.16;4993330;28;20487;-63
2021/01/27 10:09:10;;;;;;;2.45;1.20;;;;;;;3.72;70.66;99801.50;4992181;28;20050;-63
2021/01/27 10:11:37;;;;;;;2.15;1.40;;;;;;;3.82;69.80;99797.84;4994250;28;20051;-63
2021/01/27 10:14:08;;;;;;;2.10;1.30;;;;;;;3.91;70.05;99809.91;4993572;28;20050;-63
2021/01/27 10:16:52;;;;;;;1.88;1.25;;;;;;;4.05;69.76;99813.69;5001246;28;20733;-63
2021/01/27 10:19:25;;;;;;;2.13;1.40;;;;;;;4.05;68.57;99813.69;4997641;28;20046;-63
2021/01/27 10:21:55;;;;;;;1.63;1.08;;;;;;;4.03;68.64;99828.84;4992813;28;20054;-64
2021/01/27 10:24:42;;;;;;;2.20;1.42;;;;;;;3.94;69.18;99816.78;4995881;28;20050;-63
2021/01/27 10:27:16;;;;;;;2.03;1.30;;;;;;;3.88;70.21;99815.19;4991710;28;20407;-63
2021/01/27 10:29:44;;;;;;;2.63;1.40;;;;;;;3.94;70.22;99803.81;4994166;28;20054;-64
2021/01/27 10:32:26;;;;;;;2.17;1.20;;;;;;;4.05;70.71;99802.66;4988414;28;20057;-63
2021/01/27 10:34:54;;;;;;;2.58;1.70;;;;;;;4.18;71.73;99803.09;4993283;28;20057;-64
2021/01/27 10:37:43;;;;;;;5.78;1.83;;;;;;;4.31;71.13;99796.13;4994965;28;20057;-64
2021/01/27 10:40:21;;;;;;;2.00;1.30;;;;;;;4.25;71.25;99804.41;4983057;28;20499;-64
2021/01/27 10:42:49;;;;;;;2.63;1.80;;;;;;;4.29;72.18;99803.84;4992971;28;20521;-63
2021/01/27 10:45:30;;;;;;;2.30;1.85;;;;;;;4.23;72.97;99797.53;4993380;28;20518;-63
2021/01/27 10:48:15;;;;;;;2.33;1.70;;;;;;;3.96;73.69;99801.59;4981984;28;20058;-63
2021/01/27 10:50:44;;;;;;;3.72;2.20;;;;;;;4.07;73.76;99794.94;4997580;28;20495;-64
2021/01/27 10:53:16;;;;;;;2.92;2.10;;;;;;;4.04;73.30;99800.19;4994900;28;20052;-64
2021/01/27 10:55:46;;;;;;;2.65;1.80;;;;;;;3.95;74.04;99805.50;4996144;28;20050;-64
2021/01/27 10:58:13;;;;;;;;;;;;;;;4.05;74.51;99805.41;4993312;28;20054;-63
2021/01/27 11:00:42;;;;;;;2.30;1.98;;;;;;;4.13;74.49;99805.91;4988377;28;19923;-64
2021/01/27 11:03:11;;;;;;;3.65;2.50;;;;;;;4.19;74.27;99802.00;4993019;28;20051;-65
2021/01/27 11:05:38;;;;;;;4.82;2.22;;;;;;;4.15;73.74;99787.97;4997895;28;20054;-64
2021/01/27 11:08:06;;;;;;;3.05;2.10;;;;;;;4.17;73.66;99782.16;5008484;28;20057;-64
2021/01/27 11:10:33;;;;;;;2.97;2.10;;;;;;;4.14;73.78;99791.03;5004935;28;20050;-63
2021/01/27 11:13:00;;;;;;;2.42;2.03;;;;;;;4.19;74.30;99800.06;5012880;28;20057;-64
2021/01/27 11:15:27;;;;;;;3.10;2.20;;;;;;;4.25;73.92;99785.13;5008997;28;20058;-64
2021/01/27 11:17:57;;;;;;;2.70;2.15;;;;;;;4.13;73.20;99783.84;5012875;28;20054;-64
2021/01/27 11:20:26;;;;;;;3.65;2.70;;;;;;;4.22;74.29;99784.84;5012571;28;20506;-64
2021/01/27 11:22:54;;;;;;;3.50;1.92;;;;;;;4.31;74.16;99791.41;5013313;28;20057;-64
2021/01/27 11:25:22;;;;;;;2.70;2.17;;;;;;;4.25;73.73;99784.31;5011983;28;20045;-64
2021/01/27 11:27:49;;;;;;;3.40;2.50;;;;;;;4.22;73.50;99780.19;5012914;28;20050;-64
2021/01/27 11:30:20;;;;;;;2.83;2.30;;;;;;;4.24;74.17;99775.22;5000936;28;20054;-64
2021/01/27 11:32:48;;;;;;;2.30;1.70;;;;;;;4.23;73.85;99781.00;4993225;28;20050;-64
2021/01/27 11:35:16;;;;;;;3.65;2.60;;;;;;;4.19;74.56;99768.91;4992909;28;20050;-64
2021/01/27 11:37:47;;;;;;;2.97;2.42;;;;;;;4.17;74.61;99782.16;4992033;28;20503;-64
2021/01/27 11:40:16;;;;;;;3.10;2.60;;;;;;;4.20;74.46;99773.31;4977340;28;20054;-64
2021/01/27 11:42:43;;;;;;;3.27;2.23;;;;;;;4.28;74.67;99764.41;4976413;28;20061;-64
2021/01/27 11:45:10;;;;;;;3.80;2.20;;;;;;;4.23;73.53;99761.72;4975672;28;20504;-64
2021/01/27 11:47:37;;;;;;;2.03;1.63;;;;;;;4.27;74.16;99752.56;4983725;28;20067;-65
2021/01/27 11:50:06;;;;;;;2.33;1.90;;;;;;;4.22;74.42;99744.34;4983600;28;20067;-65
2021/01/27 11:52:34;;;;;;;3.72;2.10;;;;;;;4.32;74.57;99737.91;4973223;28;20139;-64
2021/01/27 11:55:03;;;;;;;3.45;2.10;;;;;;;4.35;75.01;99742.84;4972900;28;20057;-64
2021/01/27 11:57:32;;;;;;;3.00;1.83;;;;;;;4.44;74.57;99741.09;4973128;28;20058;-64
2021/01/27 12:00:00;;;;;;;2.70;1.60;;;;;;;4.48;73.38;99742.16;4973320;28;20059;-64
2021/01/27 12:02:26;;;;;;;3.45;2.10;;;;;;;4.51;74.58;99737.16;4973389;28;20059;-64
2021/01/27 12:04:53;;;;;;;2.17;1.60;;;;;;;4.45;73.85;99736.38;4973684;28;20046;-64
2021/01/27 12:07:20;;;;;;;2.03;1.70;;;;;;;4.37;74.00;99735.13;4973366;28;20061;-64
2021/01/27 12:09:48;;;;;;;2.38;1.85;;;;;;;4.58;74.26;99734.91;4972906;28;20053;-64
2021/01/27 12:12:15;;;;;;;2.58;1.73;;;;;;;4.60;73.59;99727.13;4973208;28;20054;-64